sensor_id;sensor_type;location;lat;lon;timestamp;P1;durP1;ratioP1;P2;durP2;ratioP2
13244;SDS011;6689;53.400;12.486;2023-06-14T00:00:45;7.90;;;3.75;;
13244;SDS011;6689;53.400;12.486;2023-06-14T00:03:13;6.93;;;3.85;;
13244;SDS011;6689;53.400;12.486;2023-06-14T00:05:42;7.88;;;3.45;;
13244;SDS011;6689;53.400;12.486;2023-06-14T00:08:13;6.07;;;3.58;;
13244;SDS011;6689;53.400;12.486;2023-06-14T00:10:40;5.78;;;3.70;;
13244;SDS011;6689;53.400;12.486;2023-06-14T00:13:08;6.85;;;3.80;;
13244;SDS011;6689;53.400;12.486;2023-06-14T00:15:36;5.38;;;3.95;;
13244;SDS011;6689;53.400;12.486;2023-06-14T00:18:04;6.75;;;4.10;;
13244;SDS011;6689;53.400;12.486;2023-06-14T00:20:31;8.65;;;4.00;;
13244;SDS011;6689;53.400;12.486;2023-06-14T00:22:59;4.45;;;3.53;;
13244;SDS011;6689;53.400;12.486;2023-06-14T00:25:28;7.10;;;4.15;;
13244;SDS011;6689;53.400;12.486;2023-06-14T00:27:56;11.50;;;4.13;;
13244;SDS011;6689;53.400;12.486;2023-06-14T00:30:23;5.68;;;3.90;;
13244;SDS011;6689;53.400;12.486;2023-06-14T00:32:55;6.53;;;3.92;;
13244;SDS011;6689;53.400;12.486;2023-06-14T00:35:23;7.35;;;4.20;;
13244;SDS011;6689;53.400;12.486;2023-06-14T00:37:51;5.45;;;3.63;;
13244;SDS011;6689;53.400;12.486;2023-06-14T00:40:19;7.03;;;4.40;;
13244;SDS011;6689;53.400;12.486;2023-06-14T00:42:49;9.88;;;4.85;;
13244;SDS011;6689;53.400;12.486;2023-06-14T00:45:16;10.30;;;3.90;;
13244;SDS011;6689;53.400;12.486;2023-06-14T00:47:43;6.50;;;4.07;;
13244;SDS011;6689;53.400;12.486;2023-06-14T00:50:14;8.52;;;4.30;;
13244;SDS011;6689;53.400;12.486;2023-06-14T00:52:41;7.90;;;4.00;;
13244;SDS011;6689;53.400;12.486;2023-06-14T00:55:09;7.50;;;4.25;;
13244;SDS011;6689;53.400;12.486;2023-06-14T00:57:36;10.70;;;4.45;;
13244;SDS011;6689;53.400;12.486;2023-06-14T01:00:07;7.63;;;4.50;;
13244;SDS011;6689;53.400;12.486;2023-06-14T01:02:36;7.00;;;3.83;;
13244;SDS011;6689;53.400;12.486;2023-06-14T01:05:03;6.85;;;4.18;;
13244;SDS011;6689;53.400;12.486;2023-06-14T01:07:34;5.75;;;3.83;;
13244;SDS011;6689;53.400;12.486;2023-06-14T01:10:14;7.95;;;3.85;;
13244;SDS011;6689;53.400;12.486;2023-06-14T01:12:58;6.78;;;4.57;;
13244;SDS011;6689;53.400;12.486;2023-06-14T01:15:35;7.72;;;4.25;;
13244;SDS011;6689;53.400;12.486;2023-06-14T01:18:05;8.48;;;4.30;;
13244;SDS011;6689;53.400;12.486;2023-06-14T01:20:33;8.05;;;4.95;;
13244;SDS011;6689;53.400;12.486;2023-06-14T01:23:04;8.93;;;5.55;;
13244;SDS011;6689;53.400;12.486;2023-06-14T01:25:31;7.15;;;5.10;;
13244;SDS011;6689;53.400;12.486;2023-06-14T01:28:01;10.98;;;3.90;;
13244;SDS011;6689;53.400;12.486;2023-06-14T01:30:36;6.78;;;4.68;;
13244;SDS011;6689;53.400;12.486;2023-06-14T01:33:04;8.48;;;4.05;;
13244;SDS011;6689;53.400;12.486;2023-06-14T01:35:32;6.72;;;4.13;;
13244;SDS011;6689;53.400;12.486;2023-06-14T01:37:59;6.47;;;4.93;;
13244;SDS011;6689;53.400;12.486;2023-06-14T01:40:29;6.65;;;4.43;;
13244;SDS011;6689;53.400;12.486;2023-06-14T01:42:57;9.00;;;4.68;;
13244;SDS011;6689;53.400;12.486;2023-06-14T01:45:25;7.65;;;4.50;;
13244;SDS011;6689;53.400;12.486;2023-06-14T01:47:53;6.65;;;3.63;;
13244;SDS011;6689;53.400;12.486;2023-06-14T01:50:21;7.80;;;4.30;;
13244;SDS011;6689;53.400;12.486;2023-06-14T01:52:48;8.75;;;4.60;;
13244;SDS011;6689;53.400;12.486;2023-06-14T01:55:15;11.55;;;4.43;;
13244;SDS011;6689;53.400;12.486;2023-06-14T01:57:45;10.60;;;4.10;;
13244;SDS011;6689;53.400;12.486;2023-06-14T02:00:12;5.32;;;4.30;;
13244;SDS011;6689;53.400;12.486;2023-06-14T02:02:41;6.10;;;4.18;;
13244;SDS011;6689;53.400;12.486;2023-06-14T02:05:08;8.63;;;4.50;;
13244;SDS011;6689;53.400;12.486;2023-06-14T02:07:35;5.10;;;3.78;;
13244;SDS011;6689;53.400;12.486;2023-06-14T02:10:02;9.05;;;5.10;;
13244;SDS011;6689;53.400;12.486;2023-06-14T02:12:31;7.15;;;4.13;;
13244;SDS011;6689;53.400;12.486;2023-06-14T02:14:59;8.68;;;5.50;;
13244;SDS011;6689;53.400;12.486;2023-06-14T02:17:27;7.68;;;4.97;;
13244;SDS011;6689;53.400;12.486;2023-06-14T02:19:54;7.55;;;4.32;;
13244;SDS011;6689;53.400;12.486;2023-06-14T02:22:22;8.98;;;4.30;;
13244;SDS011;6689;53.400;12.486;2023-06-14T02:24:50;7.28;;;4.40;;
13244;SDS011;6689;53.400;12.486;2023-06-14T02:27:17;4.72;;;4.07;;
13244;SDS011;6689;53.400;12.486;2023-06-14T02:29:45;8.98;;;4.22;;
13244;SDS011;6689;53.400;12.486;2023-06-14T02:32:13;6.82;;;4.43;;
13244;SDS011;6689;53.400;12.486;2023-06-14T02:34:40;10.98;;;5.05;;
13244;SDS011;6689;53.400;12.486;2023-06-14T02:37:08;12.70;;;5.18;;
13244;SDS011;6689;53.400;12.486;2023-06-14T02:39:36;9.15;;;5.05;;
13244;SDS011;6689;53.400;12.486;2023-06-14T02:42:03;9.85;;;4.93;;
13244;SDS011;6689;53.400;12.486;2023-06-14T02:44:31;9.98;;;5.00;;
13244;SDS011;6689;53.400;12.486;2023-06-14T02:46:58;8.38;;;4.88;;
13244;SDS011;6689;53.400;12.486;2023-06-14T02:49:28;8.68;;;5.22;;
13244;SDS011;6689;53.400;12.486;2023-06-14T02:51:55;6.72;;;4.60;;
13244;SDS011;6689;53.400;12.486;2023-06-14T02:54:23;6.38;;;4.70;;
13244;SDS011;6689;53.400;12.486;2023-06-14T02:56:50;12.43;;;5.13;;
13244;SDS011;6689;53.400;12.486;2023-06-14T02:59:17;7.28;;;5.10;;
13244;SDS011;6689;53.400;12.486;2023-06-14T03:08:13;7.22;;;4.72;;
13244;SDS011;6689;53.400;12.486;2023-06-14T03:10:57;6.75;;;5.50;;
13244;SDS011;6689;53.400;12.486;2023-06-14T03:13:25;10.07;;;5.53;;
13244;SDS011;6689;53.400;12.486;2023-06-14T03:15:52;8.98;;;5.38;;
13244;SDS011;6689;53.400;12.486;2023-06-14T03:18:21;8.27;;;4.63;;
13244;SDS011;6689;53.400;12.486;2023-06-14T03:20:50;7.57;;;5.18;;
13244;SDS011;6689;53.400;12.486;2023-06-14T03:23:19;8.82;;;4.95;;
13244;SDS011;6689;53.400;12.486;2023-06-14T03:25:46;7.38;;;5.45;;
13244;SDS011;6689;53.400;12.486;2023-06-14T03:28:13;10.15;;;4.80;;
13244;SDS011;6689;53.400;12.486;2023-06-14T03:30:40;10.27;;;5.07;;
13244;SDS011;6689;53.400;12.486;2023-06-14T03:33:09;8.68;;;4.72;;
13244;SDS011;6689;53.400;12.486;2023-06-14T03:35:36;6.47;;;4.95;;
13244;SDS011;6689;53.400;12.486;2023-06-14T03:38:05;6.57;;;4.97;;
13244;SDS011;6689;53.400;12.486;2023-06-14T03:40:32;8.93;;;5.07;;
13244;SDS011;6689;53.400;12.486;2023-06-14T03:43:00;8.45;;;5.70;;
13244;SDS011;6689;53.400;12.486;2023-06-14T03:45:27;10.05;;;5.20;;
13244;SDS011;6689;53.400;12.486;2023-06-14T03:47:54;9.45;;;5.10;;
13244;SDS011;6689;53.400;12.486;2023-06-14T03:50:22;9.90;;;4.85;;
13244;SDS011;6689;53.400;12.486;2023-06-14T03:52:49;7.13;;;5.07;;
13244;SDS011;6689;53.400;12.486;2023-06-14T03:55:18;8.52;;;5.32;;
13244;SDS011;6689;53.400;12.486;2023-06-14T03:57:45;5.90;;;4.88;;
13244;SDS011;6689;53.400;12.486;2023-06-14T04:00:13;9.85;;;4.30;;
13244;SDS011;6689;53.400;12.486;2023-06-14T04:02:40;8.93;;;5.40;;
13244;SDS011;6689;53.400;12.486;2023-06-14T04:05:09;8.05;;;5.18;;
13244;SDS011;6689;53.400;12.486;2023-06-14T04:07:36;10.27;;;5.82;;
13244;SDS011;6689;53.400;12.486;2023-06-14T04:10:05;11.32;;;5.90;;
13244;SDS011;6689;53.400;12.486;2023-06-14T04:12:35;7.30;;;5.07;;
13244;SDS011;6689;53.400;12.486;2023-06-14T04:15:02;7.10;;;5.43;;
13244;SDS011;6689;53.400;12.486;2023-06-14T04:17:31;8.15;;;5.35;;
13244;SDS011;6689;53.400;12.486;2023-06-14T04:19:59;10.20;;;6.13;;
13244;SDS011;6689;53.400;12.486;2023-06-14T04:22:27;7.80;;;5.38;;
13244;SDS011;6689;53.400;12.486;2023-06-14T04:24:55;8.60;;;6.30;;
13244;SDS011;6689;53.400;12.486;2023-06-14T04:27:25;9.30;;;5.97;;
13244;SDS011;6689;53.400;12.486;2023-06-14T04:29:55;9.43;;;6.10;;
13244;SDS011;6689;53.400;12.486;2023-06-14T04:32:23;7.18;;;4.75;;
13244;SDS011;6689;53.400;12.486;2023-06-14T04:34:52;8.95;;;4.78;;
13244;SDS011;6689;53.400;12.486;2023-06-14T04:37:20;8.30;;;5.38;;
13244;SDS011;6689;53.400;12.486;2023-06-14T04:39:47;8.30;;;5.07;;
13244;SDS011;6689;53.400;12.486;2023-06-14T04:42:15;12.15;;;5.18;;
13244;SDS011;6689;53.400;12.486;2023-06-14T04:44:46;12.70;;;6.18;;
13244;SDS011;6689;53.400;12.486;2023-06-14T04:47:18;7.65;;;5.57;;
13244;SDS011;6689;53.400;12.486;2023-06-14T04:49:46;6.70;;;4.70;;
13244;SDS011;6689;53.400;12.486;2023-06-14T04:52:13;11.48;;;5.72;;
13244;SDS011;6689;53.400;12.486;2023-06-14T04:54:42;9.30;;;5.05;;
13244;SDS011;6689;53.400;12.486;2023-06-14T04:57:09;6.35;;;4.78;;
13244;SDS011;6689;53.400;12.486;2023-06-14T04:59:39;7.95;;;5.07;;
13244;SDS011;6689;53.400;12.486;2023-06-14T05:02:06;7.10;;;4.65;;
13244;SDS011;6689;53.400;12.486;2023-06-14T05:04:35;11.25;;;4.72;;
13244;SDS011;6689;53.400;12.486;2023-06-14T05:07:06;8.55;;;4.55;;
13244;SDS011;6689;53.400;12.486;2023-06-14T05:09:34;6.05;;;4.50;;
13244;SDS011;6689;53.400;12.486;2023-06-14T05:12:01;7.13;;;4.97;;
13244;SDS011;6689;53.400;12.486;2023-06-14T05:14:28;9.13;;;4.50;;
13244;SDS011;6689;53.400;12.486;2023-06-14T05:16:56;7.82;;;4.78;;
13244;SDS011;6689;53.400;12.486;2023-06-14T05:19:23;7.78;;;4.55;;
13244;SDS011;6689;53.400;12.486;2023-06-14T05:21:52;12.13;;;5.30;;
13244;SDS011;6689;53.400;12.486;2023-06-14T05:24:19;10.73;;;5.47;;
13244;SDS011;6689;53.400;12.486;2023-06-14T05:26:47;8.25;;;4.50;;
13244;SDS011;6689;53.400;12.486;2023-06-14T05:29:14;7.32;;;4.65;;
13244;SDS011;6689;53.400;12.486;2023-06-14T05:31:41;8.27;;;4.50;;
13244;SDS011;6689;53.400;12.486;2023-06-14T05:34:09;8.82;;;4.82;;
13244;SDS011;6689;53.400;12.486;2023-06-14T05:36:36;8.55;;;5.13;;
13244;SDS011;6689;53.400;12.486;2023-06-14T05:39:07;8.52;;;4.70;;
13244;SDS011;6689;53.400;12.486;2023-06-14T05:41:35;9.13;;;4.30;;
13244;SDS011;6689;53.400;12.486;2023-06-14T05:44:02;5.18;;;3.95;;
13244;SDS011;6689;53.400;12.486;2023-06-14T05:46:30;7.53;;;4.68;;
13244;SDS011;6689;53.400;12.486;2023-06-14T05:48:57;5.75;;;4.03;;
13244;SDS011;6689;53.400;12.486;2023-06-14T05:51:25;9.65;;;3.97;;
13244;SDS011;6689;53.400;12.486;2023-06-14T05:53:52;5.97;;;3.65;;
13244;SDS011;6689;53.400;12.486;2023-06-14T05:56:21;5.90;;;3.88;;
13244;SDS011;6689;53.400;12.486;2023-06-14T05:58:49;8.13;;;3.97;;
13244;SDS011;6689;53.400;12.486;2023-06-14T06:01:16;9.15;;;3.50;;
13244;SDS011;6689;53.400;12.486;2023-06-14T06:03:44;7.25;;;3.90;;
13244;SDS011;6689;53.400;12.486;2023-06-14T06:06:12;7.40;;;4.63;;
13244;SDS011;6689;53.400;12.486;2023-06-14T06:08:40;5.05;;;3.75;;
13244;SDS011;6689;53.400;12.486;2023-06-14T06:11:07;5.63;;;4.10;;
13244;SDS011;6689;53.400;12.486;2023-06-14T06:13:37;8.18;;;4.13;;
13244;SDS011;6689;53.400;12.486;2023-06-14T06:16:06;9.10;;;4.68;;
13244;SDS011;6689;53.400;12.486;2023-06-14T06:18:33;11.38;;;4.68;;
13244;SDS011;6689;53.400;12.486;2023-06-14T06:21:00;11.57;;;4.95;;
13244;SDS011;6689;53.400;12.486;2023-06-14T06:23:28;6.85;;;5.28;;
13244;SDS011;6689;53.400;12.486;2023-06-14T06:25:55;7.97;;;5.50;;
13244;SDS011;6689;53.400;12.486;2023-06-14T06:28:24;7.25;;;4.78;;
13244;SDS011;6689;53.400;12.486;2023-06-14T06:30:53;8.80;;;4.30;;
13244;SDS011;6689;53.400;12.486;2023-06-14T06:33:21;7.55;;;4.55;;
13244;SDS011;6689;53.400;12.486;2023-06-14T06:35:48;7.95;;;4.43;;
13244;SDS011;6689;53.400;12.486;2023-06-14T06:38:16;5.57;;;3.88;;
13244;SDS011;6689;53.400;12.486;2023-06-14T06:40:43;9.80;;;4.25;;
13244;SDS011;6689;53.400;12.486;2023-06-14T06:43:11;7.85;;;4.30;;
13244;SDS011;6689;53.400;12.486;2023-06-14T06:45:39;10.13;;;4.40;;
13244;SDS011;6689;53.400;12.486;2023-06-14T06:48:08;6.85;;;4.22;;
13244;SDS011;6689;53.400;12.486;2023-06-14T06:50:35;7.78;;;4.43;;
13244;SDS011;6689;53.400;12.486;2023-06-14T06:53:03;13.88;;;4.70;;
13244;SDS011;6689;53.400;12.486;2023-06-14T06:55:30;7.13;;;3.80;;
13244;SDS011;6689;53.400;12.486;2023-06-14T06:57:57;10.25;;;4.20;;
13244;SDS011;6689;53.400;12.486;2023-06-14T07:00:25;5.95;;;3.67;;
13244;SDS011;6689;53.400;12.486;2023-06-14T07:02:52;5.28;;;3.70;;
13244;SDS011;6689;53.400;12.486;2023-06-14T07:05:22;5.40;;;3.53;;
13244;SDS011;6689;53.400;12.486;2023-06-14T07:07:51;4.55;;;3.70;;
13244;SDS011;6689;53.400;12.486;2023-06-14T07:10:18;6.07;;;4.20;;
13244;SDS011;6689;53.400;12.486;2023-06-14T07:12:45;6.47;;;4.13;;
13244;SDS011;6689;53.400;12.486;2023-06-14T07:15:13;8.00;;;4.03;;
13244;SDS011;6689;53.400;12.486;2023-06-14T07:17:40;7.32;;;3.80;;
13244;SDS011;6689;53.400;12.486;2023-06-14T07:20:08;5.20;;;3.83;;
13244;SDS011;6689;53.400;12.486;2023-06-14T07:22:40;7.60;;;4.18;;
13244;SDS011;6689;53.400;12.486;2023-06-14T07:25:08;7.50;;;3.83;;
13244;SDS011;6689;53.400;12.486;2023-06-14T07:27:38;4.45;;;3.20;;
13244;SDS011;6689;53.400;12.486;2023-06-14T07:30:06;6.88;;;3.50;;
13244;SDS011;6689;53.400;12.486;2023-06-14T07:32:37;11.77;;;3.83;;
13244;SDS011;6689;53.400;12.486;2023-06-14T07:35:05;6.75;;;4.03;;
13244;SDS011;6689;53.400;12.486;2023-06-14T07:37:32;6.13;;;3.45;;
13244;SDS011;6689;53.400;12.486;2023-06-14T07:40:01;11.68;;;3.83;;
13244;SDS011;6689;53.400;12.486;2023-06-14T07:42:32;4.43;;;2.78;;
13244;SDS011;6689;53.400;12.486;2023-06-14T07:45:00;5.63;;;3.22;;
13244;SDS011;6689;53.400;12.486;2023-06-14T07:47:27;7.53;;;3.30;;
13244;SDS011;6689;53.400;12.486;2023-06-14T07:49:55;6.97;;;3.22;;
13244;SDS011;6689;53.400;12.486;2023-06-14T07:52:22;3.40;;;2.80;;
13244;SDS011;6689;53.400;12.486;2023-06-14T07:54:50;11.20;;;3.75;;
13244;SDS011;6689;53.400;12.486;2023-06-14T07:57:18;5.25;;;2.45;;
13244;SDS011;6689;53.400;12.486;2023-06-14T07:59:46;5.97;;;2.80;;
13244;SDS011;6689;53.400;12.486;2023-06-14T08:02:13;3.50;;;2.63;;
13244;SDS011;6689;53.400;12.486;2023-06-14T08:04:41;10.38;;;3.03;;
13244;SDS011;6689;53.400;12.486;2023-06-14T08:07:08;4.07;;;2.65;;
13244;SDS011;6689;53.400;12.486;2023-06-14T08:09:35;5.57;;;3.20;;
13244;SDS011;6689;53.400;12.486;2023-06-14T08:12:04;4.78;;;2.78;;
13244;SDS011;6689;53.400;12.486;2023-06-14T08:14:34;6.95;;;2.83;;
13244;SDS011;6689;53.400;12.486;2023-06-14T08:17:01;4.88;;;2.60;;
13244;SDS011;6689;53.400;12.486;2023-06-14T08:19:28;8.30;;;2.83;;
13244;SDS011;6689;53.400;12.486;2023-06-14T08:21:57;6.47;;;3.25;;
13244;SDS011;6689;53.400;12.486;2023-06-14T08:24:25;5.10;;;3.10;;
13244;SDS011;6689;53.400;12.486;2023-06-14T08:26:54;5.22;;;2.53;;
13244;SDS011;6689;53.400;12.486;2023-06-14T08:29:22;4.15;;;2.85;;
13244;SDS011;6689;53.400;12.486;2023-06-14T08:31:53;5.65;;;3.00;;
13244;SDS011;6689;53.400;12.486;2023-06-14T08:34:21;6.93;;;2.70;;
13244;SDS011;6689;53.400;12.486;2023-06-14T08:36:48;4.55;;;3.03;;
13244;SDS011;6689;53.400;12.486;2023-06-14T08:39:16;5.40;;;2.83;;
13244;SDS011;6689;53.400;12.486;2023-06-14T08:41:44;4.72;;;2.60;;
13244;SDS011;6689;53.400;12.486;2023-06-14T08:44:13;4.30;;;3.17;;
13244;SDS011;6689;53.400;12.486;2023-06-14T08:46:41;7.68;;;2.63;;
13244;SDS011;6689;53.400;12.486;2023-06-14T08:49:11;7.03;;;2.97;;
13244;SDS011;6689;53.400;12.486;2023-06-14T08:51:39;6.72;;;2.58;;
13244;SDS011;6689;53.400;12.486;2023-06-14T08:54:06;7.55;;;2.55;;
13244;SDS011;6689;53.400;12.486;2023-06-14T08:56:35;8.23;;;2.80;;
13244;SDS011;6689;53.400;12.486;2023-06-14T08:59:06;4.68;;;2.03;;
13244;SDS011;6689;53.400;12.486;2023-06-14T09:01:36;6.57;;;2.42;;
13244;SDS011;6689;53.400;12.486;2023-06-14T09:04:04;4.55;;;2.47;;
13244;SDS011;6689;53.400;12.486;2023-06-14T09:06:33;4.78;;;2.90;;
13244;SDS011;6689;53.400;12.486;2023-06-14T09:09:02;6.05;;;2.40;;
13244;SDS011;6689;53.400;12.486;2023-06-14T09:11:30;4.40;;;2.33;;
13244;SDS011;6689;53.400;12.486;2023-06-14T09:13:57;4.50;;;2.80;;
13244;SDS011;6689;53.400;12.486;2023-06-14T09:16:25;5.18;;;2.28;;
13244;SDS011;6689;53.400;12.486;2023-06-14T09:18:53;4.88;;;2.90;;
13244;SDS011;6689;53.400;12.486;2023-06-14T09:21:20;7.60;;;2.80;;
13244;SDS011;6689;53.400;12.486;2023-06-14T09:23:49;5.40;;;2.60;;
13244;SDS011;6689;53.400;12.486;2023-06-14T09:26:17;9.20;;;2.85;;
13244;SDS011;6689;53.400;12.486;2023-06-14T09:28:46;5.03;;;2.53;;
13244;SDS011;6689;53.400;12.486;2023-06-14T09:31:15;6.75;;;2.72;;
13244;SDS011;6689;53.400;12.486;2023-06-14T09:33:44;5.70;;;2.80;;
13244;SDS011;6689;53.400;12.486;2023-06-14T09:36:15;4.30;;;2.80;;
13244;SDS011;6689;53.400;12.486;2023-06-14T09:38:52;6.63;;;2.40;;
13244;SDS011;6689;53.400;12.486;2023-06-14T09:41:20;6.70;;;2.58;;
13244;SDS011;6689;53.400;12.486;2023-06-14T09:43:57;5.57;;;2.50;;
13244;SDS011;6689;53.400;12.486;2023-06-14T09:46:26;4.28;;;2.83;;
13244;SDS011;6689;53.400;12.486;2023-06-14T09:48:54;7.18;;;2.70;;
13244;SDS011;6689;53.400;12.486;2023-06-14T09:51:21;5.80;;;2.60;;
13244;SDS011;6689;53.400;12.486;2023-06-14T09:53:50;4.32;;;2.63;;
13244;SDS011;6689;53.400;12.486;2023-06-14T09:56:21;5.93;;;2.85;;
13244;SDS011;6689;53.400;12.486;2023-06-14T09:58:54;5.18;;;2.53;;
13244;SDS011;6689;53.400;12.486;2023-06-14T10:01:22;5.28;;;2.65;;
13244;SDS011;6689;53.400;12.486;2023-06-14T10:03:53;4.53;;;3.22;;
13244;SDS011;6689;53.400;12.486;2023-06-14T10:06:25;5.90;;;2.92;;
13244;SDS011;6689;53.400;12.486;2023-06-14T10:08:56;4.95;;;3.25;;
13244;SDS011;6689;53.400;12.486;2023-06-14T10:11:28;12.13;;;3.03;;
13244;SDS011;6689;53.400;12.486;2023-06-14T10:13:56;4.82;;;2.58;;
13244;SDS011;6689;53.400;12.486;2023-06-14T10:16:27;4.53;;;2.55;;
13244;SDS011;6689;53.400;12.486;2023-06-14T10:19:00;6.85;;;3.85;;
13244;SDS011;6689;53.400;12.486;2023-06-14T10:21:36;9.02;;;3.30;;
13244;SDS011;6689;53.400;12.486;2023-06-14T10:24:12;6.97;;;2.58;;
13244;SDS011;6689;53.400;12.486;2023-06-14T10:26:49;5.10;;;2.65;;
13244;SDS011;6689;53.400;12.486;2023-06-14T10:29:18;4.72;;;3.05;;
13244;SDS011;6689;53.400;12.486;2023-06-14T10:31:46;10.63;;;2.97;;
13244;SDS011;6689;53.400;12.486;2023-06-14T10:34:21;8.30;;;2.92;;
13244;SDS011;6689;53.400;12.486;2023-06-14T10:37:01;6.88;;;3.55;;
13244;SDS011;6689;53.400;12.486;2023-06-14T10:39:31;7.90;;;3.00;;
13244;SDS011;6689;53.400;12.486;2023-06-14T10:42:02;4.97;;;2.97;;
13244;SDS011;6689;53.400;12.486;2023-06-14T10:44:37;7.60;;;3.08;;
13244;SDS011;6689;53.400;12.486;2023-06-14T10:47:10;4.70;;;2.85;;
13244;SDS011;6689;53.400;12.486;2023-06-14T10:49:49;8.02;;;3.30;;
13244;SDS011;6689;53.400;12.486;2023-06-14T10:52:20;6.05;;;2.65;;
13244;SDS011;6689;53.400;12.486;2023-06-14T10:57:40;6.70;;;2.75;;
13244;SDS011;6689;53.400;12.486;2023-06-14T11:00:09;5.88;;;2.92;;
13244;SDS011;6689;53.400;12.486;2023-06-14T11:05:50;5.70;;;2.78;;
13244;SDS011;6689;53.400;12.486;2023-06-14T11:08:23;6.00;;;2.80;;
13244;SDS011;6689;53.400;12.486;2023-06-14T11:11:05;8.48;;;3.08;;
13244;SDS011;6689;53.400;12.486;2023-06-14T11:13:33;7.90;;;3.05;;
13244;SDS011;6689;53.400;12.486;2023-06-14T11:16:05;7.65;;;2.90;;
13244;SDS011;6689;53.400;12.486;2023-06-14T11:18:37;7.72;;;2.22;;
13244;SDS011;6689;53.400;12.486;2023-06-14T11:21:04;5.65;;;3.00;;
13244;SDS011;6689;53.400;12.486;2023-06-14T11:23:33;10.73;;;2.92;;
13244;SDS011;6689;53.400;12.486;2023-06-14T11:26:01;7.60;;;2.95;;
13244;SDS011;6689;53.400;12.486;2023-06-14T11:28:38;7.45;;;2.60;;
13244;SDS011;6689;53.400;12.486;2023-06-14T11:31:05;7.78;;;2.85;;
13244;SDS011;6689;53.400;12.486;2023-06-14T11:33:33;4.55;;;2.90;;
13244;SDS011;6689;53.400;12.486;2023-06-14T11:36:01;6.93;;;2.50;;
13244;SDS011;6689;53.400;12.486;2023-06-14T11:38:30;5.28;;;3.10;;
13244;SDS011;6689;53.400;12.486;2023-06-14T11:41:01;9.27;;;3.53;;
13244;SDS011;6689;53.400;12.486;2023-06-14T11:43:28;4.07;;;2.70;;
13244;SDS011;6689;53.400;12.486;2023-06-14T11:45:58;8.00;;;3.00;;
13244;SDS011;6689;53.400;12.486;2023-06-14T11:48:35;5.35;;;2.90;;
13244;SDS011;6689;53.400;12.486;2023-06-14T11:51:04;7.40;;;3.13;;
13244;SDS011;6689;53.400;12.486;2023-06-14T11:53:31;7.60;;;2.33;;
13244;SDS011;6689;53.400;12.486;2023-06-14T11:55:59;5.78;;;2.80;;
13244;SDS011;6689;53.400;12.486;2023-06-14T11:58:28;5.25;;;3.20;;
13244;SDS011;6689;53.400;12.486;2023-06-14T12:00:56;3.47;;;2.83;;
13244;SDS011;6689;53.400;12.486;2023-06-14T12:03:25;6.15;;;2.42;;
13244;SDS011;6689;53.400;12.486;2023-06-14T12:06:04;5.95;;;2.70;;
13244;SDS011;6689;53.400;12.486;2023-06-14T12:08:34;4.88;;;2.83;;
13244;SDS011;6689;53.400;12.486;2023-06-14T12:11:05;4.88;;;2.83;;
13244;SDS011;6689;53.400;12.486;2023-06-14T12:13:34;8.40;;;3.03;;
13244;SDS011;6689;53.400;12.486;2023-06-14T12:16:06;4.80;;;2.40;;
13244;SDS011;6689;53.400;12.486;2023-06-14T12:18:38;8.70;;;2.47;;
13244;SDS011;6689;53.400;12.486;2023-06-14T12:21:09;7.63;;;2.83;;
13244;SDS011;6689;53.400;12.486;2023-06-14T12:23:43;13.10;;;3.17;;
13244;SDS011;6689;53.400;12.486;2023-06-14T12:26:14;6.18;;;2.80;;
13244;SDS011;6689;53.400;12.486;2023-06-14T12:28:42;4.47;;;3.10;;
13244;SDS011;6689;53.400;12.486;2023-06-14T12:31:11;3.63;;;2.78;;
13244;SDS011;6689;53.400;12.486;2023-06-14T12:33:41;6.03;;;2.80;;
13244;SDS011;6689;53.400;12.486;2023-06-14T12:36:09;3.92;;;2.30;;
13244;SDS011;6689;53.400;12.486;2023-06-14T12:38:36;5.60;;;2.63;;
13244;SDS011;6689;53.400;12.486;2023-06-14T12:41:04;5.40;;;2.65;;
13244;SDS011;6689;53.400;12.486;2023-06-14T12:43:33;7.10;;;2.70;;
13244;SDS011;6689;53.400;12.486;2023-06-14T12:46:01;5.40;;;3.08;;
13244;SDS011;6689;53.400;12.486;2023-06-14T12:48:28;4.85;;;3.08;;
13244;SDS011;6689;53.400;12.486;2023-06-14T12:50:57;8.27;;;2.78;;
13244;SDS011;6689;53.400;12.486;2023-06-14T12:53:25;6.57;;;2.90;;
13244;SDS011;6689;53.400;12.486;2023-06-14T12:55:52;24.17;;;4.18;;
13244;SDS011;6689;53.400;12.486;2023-06-14T12:58:20;6.10;;;2.95;;
13244;SDS011;6689;53.400;12.486;2023-06-14T13:00:49;5.93;;;2.97;;
13244;SDS011;6689;53.400;12.486;2023-06-14T13:03:16;6.25;;;3.28;;
13244;SDS011;6689;53.400;12.486;2023-06-14T13:05:43;12.23;;;3.15;;
13244;SDS011;6689;53.400;12.486;2023-06-14T13:08:12;6.50;;;2.45;;
13244;SDS011;6689;53.400;12.486;2023-06-14T13:10:45;5.68;;;2.58;;
13244;SDS011;6689;53.400;12.486;2023-06-14T13:13:12;5.13;;;2.80;;
13244;SDS011;6689;53.400;12.486;2023-06-14T13:15:40;4.82;;;2.53;;
13244;SDS011;6689;53.400;12.486;2023-06-14T13:18:07;8.13;;;2.67;;
13244;SDS011;6689;53.400;12.486;2023-06-14T13:20:34;7.07;;;2.58;;
13244;SDS011;6689;53.400;12.486;2023-06-14T13:23:01;4.85;;;2.83;;
13244;SDS011;6689;53.400;12.486;2023-06-14T13:25:32;3.92;;;3.08;;
13244;SDS011;6689;53.400;12.486;2023-06-14T13:27:59;7.78;;;3.15;;
13244;SDS011;6689;53.400;12.486;2023-06-14T13:30:27;5.03;;;3.00;;
13244;SDS011;6689;53.400;12.486;2023-06-14T13:32:54;5.28;;;2.72;;
13244;SDS011;6689;53.400;12.486;2023-06-14T13:35:22;11.48;;;2.85;;
13244;SDS011;6689;53.400;12.486;2023-06-14T13:37:50;3.80;;;2.55;;
13244;SDS011;6689;53.400;12.486;2023-06-14T13:40:18;5.00;;;2.97;;
13244;SDS011;6689;53.400;12.486;2023-06-14T13:42:47;4.22;;;2.67;;
13244;SDS011;6689;53.400;12.486;2023-06-14T13:45:15;4.05;;;2.53;;
13244;SDS011;6689;53.400;12.486;2023-06-14T13:47:42;5.45;;;3.30;;
13244;SDS011;6689;53.400;12.486;2023-06-14T13:50:10;4.18;;;2.53;;
13244;SDS011;6689;53.400;12.486;2023-06-14T13:52:37;5.38;;;2.90;;
13244;SDS011;6689;53.400;12.486;2023-06-14T13:55:05;6.57;;;2.85;;
13244;SDS011;6689;53.400;12.486;2023-06-14T13:57:33;8.75;;;3.20;;
13244;SDS011;6689;53.400;12.486;2023-06-14T14:00:02;11.95;;;2.80;;
13244;SDS011;6689;53.400;12.486;2023-06-14T14:02:30;6.28;;;2.63;;
13244;SDS011;6689;53.400;12.486;2023-06-14T14:04:57;6.30;;;3.00;;
13244;SDS011;6689;53.400;12.486;2023-06-14T14:07:24;6.90;;;3.15;;
13244;SDS011;6689;53.400;12.486;2023-06-14T14:09:53;4.35;;;2.67;;
13244;SDS011;6689;53.400;12.486;2023-06-14T14:12:22;17.55;;;3.63;;
13244;SDS011;6689;53.400;12.486;2023-06-14T14:14:50;19.10;;;5.47;;
13244;SDS011;6689;53.400;12.486;2023-06-14T14:17:19;11.40;;;3.65;;
13244;SDS011;6689;53.400;12.486;2023-06-14T14:19:46;6.63;;;3.10;;
13244;SDS011;6689;53.400;12.486;2023-06-14T14:22:14;5.65;;;2.78;;
13244;SDS011;6689;53.400;12.486;2023-06-14T14:24:41;9.98;;;2.70;;
13244;SDS011;6689;53.400;12.486;2023-06-14T14:27:09;6.15;;;3.22;;
13244;SDS011;6689;53.400;12.486;2023-06-14T14:29:37;7.43;;;3.38;;
13244;SDS011;6689;53.400;12.486;2023-06-14T14:32:05;8.45;;;3.10;;
13244;SDS011;6689;53.400;12.486;2023-06-14T14:34:34;6.97;;;2.58;;
13244;SDS011;6689;53.400;12.486;2023-06-14T14:37:01;4.28;;;2.42;;
13244;SDS011;6689;53.400;12.486;2023-06-14T14:39:29;5.25;;;2.72;;
13244;SDS011;6689;53.400;12.486;2023-06-14T14:41:56;5.00;;;3.10;;
13244;SDS011;6689;53.400;12.486;2023-06-14T14:44:26;5.30;;;3.40;;
13244;SDS011;6689;53.400;12.486;2023-06-14T14:46:53;7.20;;;2.92;;
13244;SDS011;6689;53.400;12.486;2023-06-14T14:49:20;4.00;;;2.58;;
13244;SDS011;6689;53.400;12.486;2023-06-14T14:51:49;5.10;;;2.60;;
13244;SDS011;6689;53.400;12.486;2023-06-14T14:54:16;9.80;;;2.95;;
13244;SDS011;6689;53.400;12.486;2023-06-14T14:56:43;4.72;;;2.85;;
13244;SDS011;6689;53.400;12.486;2023-06-14T14:59:10;3.38;;;2.70;;
13244;SDS011;6689;53.400;12.486;2023-06-14T15:01:38;7.47;;;2.60;;
13244;SDS011;6689;53.400;12.486;2023-06-14T15:04:05;7.82;;;3.30;;
13244;SDS011;6689;53.400;12.486;2023-06-14T15:06:32;7.57;;;2.80;;